Time;durP1;ratioP1;P1;durP2;ratioP2;P2;SDS_P1;SDS_P2;PMS_P1;PMS_P2;Temp;Humidity;BMP_temperature;BMP_pressure;BME280_temperature;BME280_humidity;BME280_pressure;Samples;Min_cycle;Max_cycle;Signal;HPM_P1;HPM_P2
2023/11/03 00:00:42;;;;;;;5.60;5.00;;;;;;;11.12;76.64;97544.13;218623;1258;139982;-73
2023/11/03 00:06:06;;;;;;;6.60;4.90;;;;;;;10.93;77.50;97540.61;218242;1260;139853;-73
2023/11/03 00:11:11;;;;;;;6.50;4.90;;;;;;;10.80;78.18;97528.05;218074;1258;139865;-72
2023/11/03 00:16:15;;;;;;;4.90;3.90;;;;;;;10.66;78.85;97525.45;217383;1260;140643;-72
2023/11/03 00:21:21;;;;;;;8.00;5.50;;;;;;;10.50;79.58;97515.91;217685;1258;141221;-72
2023/11/03 00:26:27;;;;;;;5.80;4.90;;;;;;;10.38;80.33;97505.39;218283;1258;141603;-69
2023/11/03 00:31:32;;;;;;;6.40;5.80;;;;;;;10.30;80.95;97486.00;217512;1260;140520;-71
2023/11/03 00:36:47;;;;;;;6.00;5.50;;;;;;;10.23;81.42;97471.45;218215;1259;139241;-71
2023/11/03 00:41:52;;;;;;;6.40;5.60;;;;;;;10.19;81.80;97468.98;218863;1260;139467;-72
2023/11/03 00:46:56;;;;;;;6.00;5.30;;;;;;;10.18;82.26;97473.19;218214;1259;141230;-71
2023/11/03 00:52:00;;;;;;;6.00;5.50;;;;;;;10.13;82.62;97474.84;218551;1259;139698;-71
2023/11/03 00:57:06;;;;;;;5.40;4.90;;;;;;;10.11;82.95;97477.21;218714;1258;139888;-72
2023/11/03 01:03:46;;;;;;;8.80;6.70;;;;;;;10.12;83.18;97475.81;214095;1293;682833;-72
2023/11/03 01:08:53;;;;;;;6.10;5.40;;;;;;;10.06;83.91;97468.45;217213;1270;140432;-72
2023/11/03 01:13:56;;;;;;;6.40;5.80;;;;;;;9.98;84.23;97468.67;218455;1267;450318;-72
2023/11/03 01:19:04;;;;;;;6.40;5.30;;;;;;;9.93;84.45;97457.59;216573;1267;138826;-72
2023/11/03 01:24:10;;;;;;;6.50;5.20;;;;;;;9.91;84.92;97454.91;217276;1267;139003;-72
2023/11/03 01:29:14;;;;;;;5.00;4.50;;;;;;;9.87;85.18;97461.81;216370;1270;138435;-72
2023/11/03 01:34:17;;;;;;;6.20;5.00;;;;;;;9.86;85.65;97455.41;217473;1267;138736;-72
2023/11/03 01:39:19;;;;;;;6.20;5.70;;;;;;;9.78;85.72;97442.13;216526;1267;138876;-71
2023/11/03 01:44:23;;;;;;;5.80;5.30;;;;;;;9.73;86.40;97445.67;216589;1267;138649;-71
2023/11/03 01:49:26;;;;;;;7.50;6.40;;;;;;;9.68;86.61;97429.17;216802;1267;138962;-72
2023/11/03 01:54:29;;;;;;;5.50;5.00;;;;;;;9.59;87.39;97413.59;216456;1267;153449;-68
2023/11/03 01:59:33;;;;;;;6.50;4.80;;;;;;;9.54;87.76;97404.34;216763;1267;140434;-72
2023/11/03 02:04:36;;;;;;;6.30;5.10;;;;;;;9.50;88.38;97400.13;216478;1271;139456;-71
2023/11/03 02:09:39;;;;;;;5.40;4.90;;;;;;;9.49;88.63;97400.95;216319;1272;139186;-72
2023/11/03 02:14:42;;;;;;;7.60;4.90;;;;;;;9.48;89.30;97395.77;216735;1267;139041;-70
2023/11/03 02:19:45;;;;;;;3.90;3.60;;;;;;;9.48;89.41;97389.96;216796;1270;139110;-72
2023/11/03 02:24:49;;;;;;;4.40;4.00;;;;;;;9.47;89.65;97378.44;216844;1272;138799;-71
2023/11/03 02:29:54;;;;;;;7.20;5.00;;;;;;;9.47;89.77;97377.85;216321;1272;139871;-72
2023/11/03 02:34:58;;;;;;;6.40;4.40;;;;;;;9.49;90.06;97380.30;218666;1267;140218;-72
2023/11/03 02:40:01;;;;;;;6.20;4.70;;;;;;;9.51;90.06;97370.05;216734;1267;138561;-71
2023/11/03 02:45:05;;;;;;;15.50;5.70;;;;;;;9.55;90.23;97352.95;216943;1268;139762;-71
2023/11/03 02:50:09;;;;;;;7.10;4.30;;;;;;;9.57;90.29;97335.84;219399;1267;139447;-72
2023/11/03 02:55:13;;;;;;;7.90;5.90;;;;;;;9.59;90.50;97325.61;218864;1267;139543;-71
2023/11/03 03:00:17;;;;;;;4.10;3.80;;;;;;;9.63;90.42;97321.61;216757;1267;139577;-71
2023/11/03 03:05:19;;;;;;;7.60;5.20;;;;;;;9.63;90.67;97307.14;217909;1260;139385;-71
2023/11/03 03:10:22;;;;;;;5.40;4.70;;;;;;;9.64;90.92;97302.45;218322;1256;139878;-71
2023/11/03 03:15:26;;;;;;;5.30;4.80;;;;;;;9.64;91.03;97292.35;218561;1256;139870;-71
2023/11/03 03:20:29;;;;;;;6.50;5.00;;;;;;;9.66;91.27;97296.89;219105;1256;140106;-70
2023/11/03 03:25:32;;;;;;;9.80;5.90;;;;;;;9.66;91.47;97299.08;218553;1256;139826;-71
2023/11/03 03:30:35;;;;;;;6.30;4.80;;;;;;;9.66;91.52;97304.28;217833;1260;142454;-70
2023/11/03 03:35:38;;;;;;;5.80;5.20;;;;;;;9.67;91.57;97306.93;218537;1257;138944;-71
2023/11/03 03:40:41;;;;;;;15.10;5.40;;;;;;;9.70;91.66;97303.98;217838;1256;139425;-71
2023/11/03 03:45:44;;;;;;;6.00;3.90;;;;;;;9.70;91.49;97300.41;217740;1260;139375;-71
2023/11/03 03:50:47;;;;;;;4.70;4.30;;;;;;;9.67;91.85;97291.36;217781;1257;138986;-71
2023/11/03 03:55:50;;;;;;;5.20;4.10;;;;;;;9.64;91.91;97289.31;218104;1257;139048;-73
2023/11/03 04:00:52;;;;;;;5.00;4.40;;;;;;;9.63;92.16;97281.19;218056;1256;139259;-71
2023/11/03 04:05:56;;;;;;;7.50;4.40;;;;;;;9.61;92.37;97272.65;217869;1257;140043;-71
2023/11/03 04:11:00;;;;;;;10.80;6.00;;;;;;;9.61;92.43;97266.64;218745;1256;140213;-71
2023/11/03 04:16:06;;;;;;;10.60;5.90;;;;;;;9.63;92.46;97257.15;217605;1257;139350;-69
2023/11/03 04:21:13;;;;;;;4.10;3.60;;;;;;;9.65;92.57;97246.21;219172;1257;139286;-71
2023/11/03 04:26:17;;;;;;;5.40;4.60;;;;;;;9.68;92.45;97240.20;218195;1257;139086;-70
2023/11/03 04:31:21;;;;;;;5.20;4.70;;;;;;;9.71;92.54;97231.13;218806;1256;139347;-70
2023/11/03 04:36:26;;;;;;;4.80;4.30;;;;;;;9.74;92.53;97220.91;218441;1260;140819;-71
2023/11/03 04:41:30;;;;;;;6.30;3.80;;;;;;;9.76;92.73;97208.65;217917;1260;138854;-71
2023/11/03 04:46:32;;;;;;;5.50;4.20;;;;;;;9.77;92.84;97202.09;219549;1256;140646;-71
2023/11/03 04:51:36;;;;;;;5.70;3.60;;;;;;;9.77;92.70;97195.43;219172;1256;140438;-71
2023/11/03 04:56:39;;;;;;;5.70;5.20;;;;;;;9.81;92.87;97188.97;218896;1256;141222;-70
2023/11/03 05:01:43;;;;;;;5.50;5.00;;;;;;;9.83;92.75;97181.21;218738;1256;139179;-71
2023/11/03 05:06:47;;;;;;;7.40;4.40;;;;;;;9.84;92.91;97170.14;218644;1257;138726;-72
2023/11/03 05:11:51;;;;;;;6.30;4.20;;;;;;;9.84;92.97;97160.40;218631;1256;138995;-72
2023/11/03 05:16:54;;;;;;;7.70;3.70;;;;;;;9.85;93.05;97165.90;217914;1256;139951;-71
2023/11/03 05:21:57;;;;;;;5.50;5.00;;;;;;;9.85;93.12;97162.61;217757;1259;140116;-71
2023/11/03 05:27:00;;;;;;;9.00;4.30;;;;;;;9.87;93.19;97154.02;217716;1257;139131;-72
2023/11/03 05:32:04;;;;;;;6.80;4.40;;;;;;;9.89;93.27;97151.37;217823;1257;139291;-68
2023/11/03 05:37:06;;;;;;;5.00;4.00;;;;;;;9.90;93.37;97151.36;218193;1257;141047;-69
2023/11/03 05:42:09;;;;;;;6.90;4.50;;;;;;;9.92;93.27;97147.71;217703;1257;138942;-70
2023/11/03 05:47:12;;;;;;;4.40;3.70;;;;;;;9.94;93.40;97142.83;219241;1256;139010;-70
2023/11/03 05:52:17;;;;;;;5.00;4.40;;;;;;;9.97;93.34;97149.48;217753;1258;139264;-69
2023/11/03 05:57:21;;;;;;;8.40;4.20;;;;;;;10.01;93.16;97151.11;218020;1256;139962;-69
2023/11/03 06:02:25;;;;;;;4.40;4.00;;;;;;;10.05;92.99;97147.96;219477;1256;139815;-71
2023/11/03 06:07:28;;;;;;;6.40;3.50;;;;;;;10.06;93.04;97152.08;219408;1256;139328;-72
2023/11/03 06:12:32;;;;;;;8.30;4.90;;;;;;;10.09;92.90;97141.42;218499;1256;139414;-70
2023/11/03 06:17:35;;;;;;;4.70;3.70;;;;;;;10.12;92.72;97157.55;217667;1256;139899;-70
2023/11/03 06:22:39;;;;;;;5.50;4.90;;;;;;;10.16;92.62;97147.15;218017;1259;139454;-67
2023/11/03 06:27:44;;;;;;;4.80;3.80;;;;;;;10.18;92.43;97133.11;217709;1257;139454;-70
2023/11/03 06:32:48;;;;;;;5.50;4.60;;;;;;;10.19;92.45;97135.94;218749;1259;139315;-70
2023/11/03 06:37:51;;;;;;;5.30;3.80;;;;;;;10.22;92.54;97126.95;219197;1256;139351;-69
2023/11/03 06:42:54;;;;;;;7.30;4.80;;;;;;;10.24;92.33;97130.21;217767;1256;140657;-69
2023/11/03 06:47:57;;;;;;;4.40;4.00;;;;;;;10.26;92.20;97132.67;218799;1256;141724;-69
2023/11/03 06:53:00;;;;;;;7.10;4.50;;;;;;;10.29;92.12;97143.64;218735;1256;140146;-70
2023/11/03 06:58:04;;;;;;;6.20;3.80;;;;;;;10.35;92.05;97167.93;218387;1256;139628;-70
2023/11/03 07:03:10;;;;;;;6.20;3.10;;;;;;;10.40;91.84;97169.05;219363;1257;139594;-69
2023/11/03 07:08:14;;;;;;;5.00;3.20;;;;;;;10.44;91.72;97182.00;218971;1256;139603;-72
2023/11/03 07:13:19;;;;;;;5.80;4.50;;;;;;;10.46;91.68;97181.80;218472;1256;139310;-72
2023/11/03 07:18:23;;;;;;;5.50;4.30;;;;;;;10.46;91.46;97186.13;217614;1257;139625;-69
2023/11/03 07:23:27;;;;;;;4.10;3.20;;;;;;;10.46;91.57;97185.65;218511;1257;141717;-72
2023/11/03 07:28:30;;;;;;;7.50;4.00;;;;;;;10.50;91.80;97183.36;218399;1256;139950;-72
2023/11/03 07:33:33;;;;;;;7.10;3.80;;;;;;;10.48;91.61;97165.54;217863;1257;139899;-72
2023/11/03 07:38:37;;;;;;;7.60;3.60;;;;;;;10.46;91.48;97173.02;218238;1260;140344;-71
2023/11/03 07:43:40;;;;;;;5.30;3.30;;;;;;;10.45;91.50;97163.92;217568;1256;139794;-68
2023/11/03 07:48:43;;;;;;;4.60;4.00;;;;;;;10.47;91.91;97161.61;218193;1256;140183;-71
2023/11/03 07:53:47;;;;;;;5.60;4.20;;;;;;;10.53;91.95;97167.00;217496;1256;140221;-71
2023/11/03 07:58:50;;;;;;;7.40;4.10;;;;;;;10.58;91.97;97159.70;217782;1257;139433;-72
2023/11/03 08:03:54;;;;;;;6.30;3.60;;;;;;;10.62;91.90;97174.66;218542;1256;138561;-72
2023/11/03 08:08:57;;;;;;;7.70;4.60;;;;;;;10.65;91.92;97186.89;217769;1257;139048;-73
2023/11/03 08:14:00;;;;;;;6.10;4.00;;;;;;;10.69;91.88;97188.69;219194;1256;140519;-72
2023/11/03 08:19:04;;;;;;;4.80;3.30;;;;;;;10.70;91.52;97162.77;218458;1256;141327;-71
2023/11/03 08:24:12;;;;;;;4.40;3.50;;;;;;;10.74;91.46;97159.09;219486;1257;139489;-74
2023/11/03 08:29:16;;;;;;;5.00;4.20;;;;;;;10.81;91.49;97174.34;217575;1257;139482;-70
2023/11/03 08:34:20;;;;;;;7.30;4.40;;;;;;;10.89;91.18;97160.29;219998;1256;140848;-71
2023/11/03 08:39:25;;;;;;;6.20;4.30;;;;;;;10.97;90.97;97146.58;218574;1257;142173;-70
2023/11/03 08:44:32;;;;;;;4.30;3.80;;;;;;;11.05;90.72;97139.50;220448;1256;139796;-70
2023/11/03 08:49:35;;;;;;;3.90;3.10;;;;;;;11.12;90.61;97147.35;220237;1256;140034;-73
2023/11/03 08:54:40;;;;;;;5.70;4.10;;;;;;;11.18;90.47;97145.99;220522;1256;141759;-73
2023/11/03 08:59:47;;;;;;;4.60;3.40;;;;;;;11.27;90.37;97148.52;219832;1256;140149;-69
2023/11/03 09:04:51;;;;;;;4.60;3.40;;;;;;;11.39;89.93;97141.66;217730;1257;140361;-69
2023/11/03 09:09:56;;;;;;;5.90;4.80;;;;;;;11.50;89.86;97128.30;218089;1260;140437;-69
2023/11/03 09:15:00;;;;;;;7.80;4.50;;;;;;;11.60;89.78;97119.73;218125;1256;139851;-69
2023/11/03 09:20:05;;;;;;;5.50;4.10;;;;;;;11.69;89.65;97118.73;219300;1260;139998;-69
2023/11/03 09:25:09;;;;;;;10.90;5.30;;;;;;;11.76;89.37;97129.85;217830;1257;140504;-69
2023/11/03 09:30:15;;;;;;;5.90;3.90;;;;;;;11.79;88.90;97130.05;217672;1257;140053;-69
2023/11/03 09:35:19;;;;;;;6.20;4.30;;;;;;;11.84;88.59;97131.36;217732;1260;140212;-70
2023/11/03 09:40:23;;;;;;;3.90;3.00;;;;;;;11.88;88.39;97137.48;217660;1257;141770;-69
2023/11/03 09:45:29;;;;;;;3.70;3.30;;;;;;;11.88;88.29;97126.86;218029;1259;140122;-70
2023/11/03 09:50:34;;;;;;;6.20;3.80;;;;;;;11.84;88.56;97125.40;217905;1256;140502;-69
2023/11/03 09:55:41;;;;;;;3.70;3.10;;;;;;;11.81;88.17;97110.52;218144;1257;139578;-69
2023/11/03 10:00:46;;;;;;;5.60;3.50;;;;;;;11.76;88.33;97109.07;217819;1259;141512;-68
2023/11/03 10:05:50;;;;;;;4.60;4.00;;;;;;;11.77;88.76;97115.30;218724;1256;139703;-69
2023/11/03 10:10:58;;;;;;;21.00;4.70;;;;;;;11.74;88.47;97110.86;217722;1257;140168;-71
2023/11/03 10:16:07;;;;;;;17.20;4.00;;;;;;;11.73;88.81;97103.56;218512;1255;139489;-72
2023/11/03 10:21:13;;;;;;;6.90;4.40;;;;;;;11.76;89.16;97098.35;217998;1256;140397;-72
2023/11/03 10:26:18;;;;;;;6.10;5.60;;;;;;;11.78;89.62;97095.15;217927;1256;139640;-72
2023/11/03 10:31:26;;;;;;;7.20;4.20;;;;;;;11.81;89.80;97097.08;219211;1259;139875;-73
2023/11/03 10:36:32;;;;;;;6.50;3.20;;;;;;;11.81;89.77;97095.46;217813;1257;140600;-72
2023/11/03 10:41:38;;;;;;;6.20;3.70;;;;;;;11.81;89.68;97099.94;220315;1256;141885;-72
2023/11/03 10:47:09;;;;;;;6.70;3.70;;;;;;;11.82;89.90;97087.48;220490;1256;139631;-69
2023/11/03 10:52:16;;;;;;;6.90;4.30;;;;;;;11.85;90.28;97077.91;220390;1257;140347;-69
2023/11/03 10:57:23;;;;;;;5.40;4.90;;;;;;;11.89;90.11;97071.52;217764;1257;140492;-73
2023/11/03 11:02:43;;;;;;;8.30;5.90;;;;;;;11.93;90.22;97063.05;219376;1260;139622;-73
2023/11/03 11:07:56;;;;;;;8.60;5.30;;;;;;;11.95;90.07;97056.64;217849;1257;139926;-68
2023/11/03 11:13:00;;;;;;;11.20;7.90;;;;;;;11.99;90.33;97048.90;218280;1257;139450;-73
2023/11/03 11:18:15;;;;;;;10.10;8.00;;;;;;;11.99;90.34;97045.64;218068;1257;140130;-70
2023/11/03 11:23:23;;;;;;;9.10;7.10;;;;;;;11.99;90.38;97041.90;217871;1257;140670;-69
2023/11/03 11:28:43;;;;;;;7.50;6.80;;;;;;;12.00;90.82;97035.41;218325;1257;140082;-69
2023/11/03 11:34:06;;;;;;;8.80;7.50;;;;;;;12.00;90.63;97031.52;217545;1260;139584;-69
2023/11/03 11:39:15;;;;;;;9.70;7.50;;;;;;;11.99;90.45;97008.27;217651;1256;140625;-68
2023/11/03 11:44:23;;;;;;;12.70;8.80;;;;;;;11.96;90.48;96998.95;217733;1257;140072;-67
2023/11/03 11:49:29;;;;;;;12.90;9.10;;;;;;;11.92;90.73;96989.27;218026;1257;140149;-67
2023/11/03 11:54:34;;;;;;;11.80;9.80;;;;;;;11.87;90.96;96987.42;217588;1257;139928;-68
2023/11/03 11:59:41;;;;;;;17.90;10.10;;;;;;;11.82;90.75;96986.34;217657;1257;139713;-68
2023/11/03 12:04:49;;;;;;;14.30;10.80;;;;;;;11.77;90.83;96982.70;218167;1257;140432;-68
2023/11/03 12:09:54;;;;;;;12.80;8.50;;;;;;;11.74;90.86;96985.11;217709;1257;140718;-67
2023/11/03 12:15:00;;;;;;;18.10;8.30;;;;;;;11.71;90.84;96984.09;217814;1257;139564;-69
2023/11/03 12:20:12;;;;;;;13.90;8.70;;;;;;;11.64;90.87;96981.05;217624;1257;139656;-70
2023/11/03 12:25:18;;;;;;;11.40;10.30;;;;;;;11.60;90.89;96971.70;219080;1256;140468;-69
2023/11/03 12:30:22;;;;;;;26.50;15.00;;;;;;;11.56;91.13;96970.27;219034;1256;140366;-69
2023/11/03 12:35:31;;;;;;;18.00;13.60;;;;;;;11.54;91.31;96965.18;219406;1257;140193;-69
2023/11/03 12:40:33;;;;;;;15.30;10.80;;;;;;;11.52;91.01;96964.30;219365;1256;140376;-69
2023/11/03 12:45:44;;;;;;;13.10;9.40;;;;;;;11.48;91.13;96958.30;219267;1257;140405;-69
2023/11/03 12:50:53;;;;;;;12.60;9.40;;;;;;;11.44;91.26;96955.40;219646;1257;139815;-69
2023/11/03 12:56:03;;;;;;;11.50;8.40;;;;;;;11.43;91.26;96948.08;218885;1257;140043;-70
2023/11/03 13:01:10;;;;;;;12.20;8.60;;;;;;;11.39;91.11;96945.92;218211;1257;140137;-69
2023/11/03 13:06:26;;;;;;;14.60;8.60;;;;;;;11.35;91.48;96939.95;218873;1257;139720;-69
2023/11/03 13:11:49;;;;;;;13.20;8.00;;;;;;;11.31;91.38;96929.46;218019;1257;140244;-69
2023/11/03 13:16:57;;;;;;;10.90;7.20;;;;;;;11.28;91.62;96920.02;218044;1257;236919;-68
2023/11/03 13:22:05;;;;;;;12.00;8.60;;;;;;;11.25;91.64;96909.81;218334;1259;142528;-69
2023/11/03 13:27:10;;;;;;;11.30;8.60;;;;;;;11.21;91.50;96903.02;217583;1257;139816;-69
2023/11/03 13:32:18;;;;;;;10.30;6.40;;;;;;;11.14;91.55;96887.58;217765;1257;140292;-69
2023/11/03 13:37:26;;;;;;;8.50;5.10;;;;;;;11.06;91.64;96870.34;217919;1257;139592;-69
2023/11/03 13:42:30;;;;;;;10.40;6.30;;;;;;;10.95;91.89;96859.88;218069;1257;139526;-69
2023/11/03 13:47:35;;;;;;;7.90;5.60;;;;;;;10.83;92.23;96851.77;217738;1257;139952;-69
2023/11/03 13:52:39;;;;;;;13.00;7.50;;;;;;;10.77;92.61;96844.41;218082;1257;143334;-68
2023/11/03 13:57:45;;;;;;;10.80;8.30;;;;;;;10.72;93.04;96830.55;218205;1260;140267;-68
2023/11/03 14:02:50;;;;;;;7.50;5.60;;;;;;;10.66;93.37;96795.95;217657;1260;139758;-71
2023/11/03 14:07:55;;;;;;;7.90;4.20;;;;;;;10.61;93.70;96784.58;217951;1257;142071;-70
2023/11/03 14:13:01;;;;;;;6.90;5.00;;;;;;;10.59;93.75;96793.99;218369;1256;139984;-70
2023/11/03 14:18:09;;;;;;;5.80;4.90;;;;;;;10.60;94.30;96793.66;217879;1259;139797;-69
2023/11/03 14:23:18;;;;;;;7.60;4.60;;;;;;;10.61;94.60;96785.91;217792;1257;139567;-71
2023/11/03 14:28:24;;;;;;;5.10;4.10;;;;;;;10.60;94.71;96790.92;218403;1257;140385;-69
2023/11/03 14:33:32;;;;;;;8.10;6.10;;;;;;;10.61;94.86;96783.03;220529;1257;140375;-69
2023/11/03 14:38:39;;;;;;;5.40;4.50;;;;;;;10.63;94.81;96784.69;220523;1256;140685;-69
2023/11/03 14:43:42;;;;;;;7.30;5.70;;;;;;;10.64;94.95;96801.83;219790;1257;140964;-68
2023/11/03 14:48:50;;;;;;;5.40;4.80;;;;;;;10.65;95.33;96813.36;219270;1257;144081;-68
2023/11/03 14:53:53;;;;;;;10.40;5.90;;;;;;;10.65;96.12;96808.19;217828;1257;140125;-68
2023/11/03 14:59:00;;;;;;;5.70;5.10;;;;;;;10.66;96.32;96789.68;219061;1260;140375;-68
2023/11/03 15:04:05;;;;;;;5.60;5.00;;;;;;;10.69;96.34;96795.83;218168;1260;140059;-71
2023/11/03 15:09:09;;;;;;;7.50;5.50;;;;;;;10.67;96.32;96792.16;218030;1257;139971;-69
2023/11/03 15:14:11;;;;;;;8.90;5.60;;;;;;;10.63;96.51;96789.27;218448;1260;139659;-69
2023/11/03 15:19:17;;;;;;;7.10;6.10;;;;;;;10.62;96.63;96789.44;218496;1260;140022;-73
2023/11/03 15:24:20;;;;;;;8.60;5.40;;;;;;;10.62;96.86;96783.77;218619;1257;139823;-71
2023/11/03 15:29:23;;;;;;;8.70;6.90;;;;;;;10.62;96.82;96767.56;217617;1258;139514;-70
2023/11/03 15:34:28;;;;;;;11.90;7.80;;;;;;;10.61;96.76;96769.28;217700;1260;140118;-70
2023/11/03 15:39:34;;;;;;;11.10;8.20;;;;;;;10.58;96.97;96778.35;218598;1257;141891;-69
2023/11/03 15:44:42;;;;;;;13.80;8.80;;;;;;;10.59;97.11;96757.14;217979;1259;140000;-71
2023/11/03 15:49:50;;;;;;;10.10;7.10;;;;;;;10.60;97.21;96743.48;218092;1258;139998;-71
2023/11/03 15:54:54;;;;;;;22.50;11.50;;;;;;;10.59;97.41;96740.63;217906;1260;140265;-73
2023/11/03 16:00:01;;;;;;;21.80;11.50;;;;;;;10.57;97.59;96735.64;217901;1260;139896;-71
2023/11/03 16:05:08;;;;;;;10.00;6.90;;;;;;;10.58;97.64;96736.99;218442;1257;140046;-71
2023/11/03 16:10:16;;;;;;;9.40;7.40;;;;;;;10.57;97.74;96749.67;218313;1257;141090;-71
2023/11/03 16:15:21;;;;;;;12.40;9.20;;;;;;;10.59;97.98;96754.11;219285;1260;139384;-70
2023/11/03 16:20:28;;;;;;;10.10;7.50;;;;;;;10.61;98.04;96756.98;217908;1260;141610;-69
2023/11/03 16:25:33;;;;;;;11.40;7.30;;;;;;;10.62;98.04;96763.40;218094;1260;139600;-69
2023/11/03 16:30:45;;;;;;;12.90;8.40;;;;;;;10.64;98.08;96762.66;217765;1257;140430;-67
2023/11/03 16:35:51;;;;;;;16.70;8.20;;;;;;;10.66;98.29;96760.47;219062;1256;140239;-68
2023/11/03 16:40:57;;;;;;;16.30;9.20;;;;;;;10.67;98.30;96750.32;218276;1257;140422;-69
2023/11/03 16:46:08;;;;;;;10.20;8.00;;;;;;;10.69;98.32;96741.27;218929;1260;140786;-69
2023/11/03 16:51:21;;;;;;;13.00;8.70;;;;;;;10.70;98.43;96735.68;218116;1259;139671;-71
2023/11/03 16:56:27;;;;;;;10.40;7.80;;;;;;;10.70;98.39;96740.95;218376;1260;139882;-69
2023/11/03 17:01:34;;;;;;;10.30;8.00;;;;;;;10.70;98.33;96721.67;218086;1257;141637;-69
2023/11/03 17:06:38;;;;;;;8.70;6.90;;;;;;;10.74;98.50;96707.92;217840;1256;139666;-69
2023/11/03 17:11:41;;;;;;;10.00;7.50;;;;;;;10.77;98.38;96701.50;218112;1260;139416;-70
2023/11/03 17:16:45;;;;;;;14.00;8.70;;;;;;;10.79;98.24;96712.35;217773;1258;139710;-70
2023/11/03 17:21:50;;;;;;;11.30;8.40;;;;;;;10.81;98.31;96718.54;218946;1258;140341;-70
2023/11/03 17:27:01;;;;;;;10.90;9.30;;;;;;;10.81;98.22;96713.59;218101;1257;139566;-69
2023/11/03 17:32:11;;;;;;;11.90;8.50;;;;;;;10.83;98.19;96702.28;218371;1260;139980;-68
2023/11/03 17:37:16;;;;;;;;;;;;;;;10.84;98.30;96708.86;217680;1257;139619;-69
2023/11/03 17:42:21;;;;;;;9.60;6.90;;;;;;;10.84;98.03;96703.48;218216;1260;125794;-68
2023/11/03 17:47:25;;;;;;;15.70;9.00;;;;;;;10.85;98.16;96707.55;218104;1260;139972;-69
2023/11/03 17:52:29;;;;;;;11.00;7.60;;;;;;;10.83;98.07;96709.86;217704;1256;139607;-67
2023/11/03 17:57:32;;;;;;;11.90;8.00;;;;;;;10.83;97.97;96710.17;218212;1260;141517;-73
2023/11/03 18:02:37;;;;;;;11.80;9.10;;;;;;;10.83;98.38;96710.02;217970;1264;139944;-70
2023/11/03 18:07:40;;;;;;;13.00;9.10;;;;;;;10.85;97.95;96692.23;218257;1257;140101;-68
2023/11/03 18:12:43;;;;;;;11.40;7.90;;;;;;;10.84;98.08;96697.08;218766;1260;141458;-71
2023/11/03 18:17:47;;;;;;;11.30;9.30;;;;;;;10.84;98.21;96694.23;218778;1257;139822;-69
2023/11/03 18:22:53;;;;;;;7.60;6.50;;;;;;;10.83;98.03;96683.69;218671;1258;139589;-69
2023/11/03 18:27:58;;;;;;;11.80;8.30;;;;;;;10.84;98.12;96673.38;218292;1260;154495;-69
2023/11/03 18:33:00;;;;;;;18.60;9.00;;;;;;;10.85;98.25;96674.79;218880;1257;140383;-70
2023/11/03 18:38:04;;;;;;;16.40;9.70;;;;;;;10.86;98.23;96671.02;219181;1260;141288;-68
2023/11/03 18:43:10;;;;;;;11.00;8.10;;;;;;;10.86;98.27;96668.46;217861;1257;139928;-68
2023/11/03 18:48:16;;;;;;;12.10;8.90;;;;;;;10.86;98.44;96668.84;218338;1260;139955;-70
2023/11/03 18:53:25;;;;;;;13.30;10.40;;;;;;;10.85;98.31;96659.86;218202;1257;140262;-70
2023/11/03 18:58:40;;;;;;;11.70;7.80;;;;;;;10.85;98.67;96661.02;218441;1256;140421;-69
2023/11/03 19:03:48;;;;;;;9.10;7.00;;;;;;;10.84;98.63;96665.70;218076;1260;140555;-68
2023/11/03 19:09:12;;;;;;;9.00;6.70;;;;;;;10.85;98.77;96658.52;218171;1259;139582;-72
2023/11/03 19:14:20;;;;;;;12.60;8.00;;;;;;;10.87;98.86;96659.12;219043;1258;141357;-71
2023/11/03 19:19:27;;;;;;;7.50;5.80;;;;;;;10.87;98.85;96664.08;218479;1258;139523;-69
2023/11/03 19:24:30;;;;;;;15.80;7.50;;;;;;;10.88;98.94;96662.13;218599;1257;140597;-69
2023/11/03 19:29:36;;;;;;;9.20;7.70;;;;;;;10.89;98.69;96663.11;218750;1256;140870;-70
2023/11/03 19:34:43;;;;;;;9.30;6.40;;;;;;;10.87;98.80;96656.77;218002;1258;139942;-68
2023/11/03 19:39:47;;;;;;;13.20;7.00;;;;;;;10.85;99.24;96656.91;218017;1257;230965;-68
2023/11/03 19:44:50;;;;;;;22.70;10.10;;;;;;;10.84;99.13;96647.27;217593;1258;140465;-67
2023/11/03 19:49:52;;;;;;;10.00;7.40;;;;;;;10.83;99.55;96641.52;218183;1257;141129;-69
2023/11/03 19:54:59;;;;;;;7.10;5.50;;;;;;;10.84;99.50;96641.88;219975;1257;140132;-69
2023/11/03 20:00:01;;;;;;;6.40;4.40;;;;;;;10.84;99.31;96648.21;219100;1256;139720;-70
2023/11/03 20:05:04;;;;;;;13.40;4.60;;;;;;;10.83;98.94;96643.02;217954;1257;142633;-68
2023/11/03 20:10:09;;;;;;;5.00;3.10;;;;;;;10.80;98.87;96633.36;218635;1260;140371;-68
2023/11/03 20:15:14;;;;;;;3.90;2.50;;;;;;;10.76;98.37;96623.08;218823;1257;139512;-68
2023/11/03 20:20:18;;;;;;;6.90;2.80;;;;;;;10.72;98.23;96629.28;217908;1260;139700;-69
2023/11/03 20:25:22;;;;;;;4.10;2.40;;;;;;;10.70;98.47;96641.32;219205;1257;139359;-69
2023/11/03 20:30:25;;;;;;;4.50;2.90;;;;;;;10.70;98.13;96650.44;219162;1256;140534;-68
2023/11/03 20:35:27;;;;;;;5.40;3.00;;;;;;;10.68;97.88;96666.55;217865;1257;151338;-69
2023/11/03 20:40:31;;;;;;;4.20;2.60;;;;;;;10.66;97.88;96680.71;218442;1258;139838;-68
2023/11/03 20:45:38;;;;;;;4.60;2.50;;;;;;;10.65;97.89;96687.66;218369;1256;139731;-70
2023/11/03 20:50:45;;;;;;;4.90;2.70;;;;;;;10.64;97.80;96690.48;218593;1258;139782;-70
2023/11/03 20:55:52;;;;;;;3.50;2.80;;;;;;;10.61;97.40;96694.11;218892;1256;140192;-68
2023/11/03 21:00:55;;;;;;;5.00;2.50;;;;;;;10.59;97.59;96687.77;218264;1256;140899;-69
2023/11/03 21:05:59;;;;;;;5.30;3.30;;;;;;;10.55;97.45;96693.20;219027;1257;139821;-70
2023/11/03 21:11:03;;;;;;;3.90;2.60;;;;;;;10.49;97.27;96703.29;218176;1260;140636;-69
2023/11/03 21:16:07;;;;;;;3.20;2.40;;;;;;;10.38;97.37;96714.38;217827;1257;140753;-68
2023/11/03 21:21:11;;;;;;;3.40;2.90;;;;;;;10.31;97.58;96732.67;218094;1256;140155;-69
2023/11/03 21:26:18;;;;;;;4.80;4.00;;;;;;;10.24;97.35;96752.23;218234;1260;141888;-70
2023/11/03 21:31:21;;;;;;;4.70;3.40;;;;;;;10.12;96.67;96774.96;217867;1257;140156;-68
2023/11/03 21:36:27;;;;;;;4.00;3.70;;;;;;;9.95;96.08;96788.52;217695;1257;140739;-68
2023/11/03 21:41:31;;;;;;;3.90;3.30;;;;;;;9.79;95.92;96800.11;217864;1257;139558;-68
2023/11/03 21:46:35;;;;;;;4.50;2.80;;;;;;;9.68;95.82;96821.12;217609;1257;139436;-70
2023/11/03 21:51:41;;;;;;;3.70;3.40;;;;;;;9.49;94.99;96843.80;217839;1260;139691;-71
2023/11/03 21:56:45;;;;;;;4.40;3.00;;;;;;;9.26;94.53;96853.41;218233;1257;139613;-69
2023/11/03 22:01:48;;;;;;;3.40;3.10;;;;;;;9.06;94.29;96862.73;217697;1257;139189;-71
2023/11/03 22:06:52;;;;;;;3.50;3.00;;;;;;;8.92;94.32;96874.63;217864;1257;139429;-70
2023/11/03 22:11:56;;;;;;;3.30;3.00;;;;;;;8.78;94.30;96883.38;218491;1257;139378;-69
2023/11/03 22:17:01;;;;;;;3.50;2.60;;;;;;;8.64;94.26;96899.34;217864;1257;139216;-70
2023/11/03 22:22:04;;;;;;;2.80;2.10;;;;;;;8.54;94.37;96914.10;217951;1257;140112;-70
2023/11/03 22:27:08;;;;;;;1.90;1.80;;;;;;;8.44;94.21;96932.73;219734;1257;139858;-70
2023/11/03 22:32:13;;;;;;;2.10;1.90;;;;;;;8.38;94.30;96944.40;218890;1257;139890;-71
2023/11/03 22:37:17;;;;;;;4.30;2.20;;;;;;;8.32;94.17;96964.16;219615;1257;139793;-71
2023/11/03 22:42:20;;;;;;;2.10;1.90;;;;;;;8.27;94.17;96978.48;218008;1257;139062;-68
2023/11/03 22:47:26;;;;;;;4.80;2.10;;;;;;;8.23;93.93;96988.23;218337;1257;140975;-68
2023/11/03 22:52:30;;;;;;;1.60;1.50;;;;;;;8.12;94.01;97002.11;219717;1257;151249;-69
2023/11/03 22:57:35;;;;;;;1.80;1.40;;;;;;;8.06;93.95;97016.98;218261;1256;139908;-69
2023/11/03 23:02:41;;;;;;;1.30;1.20;;;;;;;7.96;93.91;97031.27;218546;1256;138855;-69
2023/11/03 23:07:45;;;;;;;1.30;1.20;;;;;;;7.89;94.02;97040.02;217756;1258;139648;-68
2023/11/03 23:12:49;;;;;;;3.00;2.10;;;;;;;7.77;93.77;97057.10;218232;1256;139224;-69
2023/11/03 23:17:53;;;;;;;1.80;1.30;;;;;;;7.60;93.23;97078.06;218103;1258;139589;-70
2023/11/03 23:22:56;;;;;;;2.10;1.50;;;;;;;7.43;93.73;97086.06;217974;1257;139174;-69